Main page
METAR-TAF:

METAR-TAF

Airports :

Kuwait International Airport

Kuwait City, Kuwait

latitude: 29-13N, longitude: 047-59E, elevation: 55 m

Current weather observation

The report was made 46 minutes ago, at 15:00 UTC
Wind 12 kt from the Southeast
Temperature 31°C
Humidity 40%
Pressure 1006 hPa
Visibility: 8000 m

METAR: OKBK 201500Z 13012KT 8000 NSC 31/16 Q1006 NOSIG

Time: 18:46 (15:46 UTC)

Forecast

The report was made 5 hours and 1 minutes ago, at 10:45 UTC
Forecast valid from 20 at 12 UTC to 21 at 18 UTC
Wind 8 kt from the Southeast with gusts up to 18 kt
Visibility: 8000 m
Few clouds at a height of 4000 ft
Scattered clouds at a height of 8000 ft
Temporary
from 20 at 12 UTC to 20 at 15 UTC
Visibility: 4000 m
Few clouds at a height of 3000 ft, Cumulonimbus.
thunderstorm, light rain

TAF: OKBK 201045Z 2012/2118 14008G18KT 8000 FEW040 SCT080 TEMPO 2012/2015 4000 -TSRA FEW030CB

Weather observations and forecasts of more than 4000 airports (METAR and TAF reports).

The available stations are represented by yellow and red dots on the map.

Hover mouse over dot to see the name of the station.

Then click to see weather observations and forecasts.

To change the map : click on the green buttons with a black cross to zoom in, on the green button with a dash to zoom out, or on the green arrows for adjacent maps.


METAR-TAF: